sensor_id;sensor_type;location;lat;lon;timestamp;temperature;humidity
7014;DHT22;3547;50.774;12.918;2023-01-25T00:02:19;0.30;68.40
7014;DHT22;3547;50.774;12.918;2023-01-25T00:04:45;0.30;79.10
7014;DHT22;3547;50.774;12.918;2023-01-25T00:07:11;0.30;80.10
7014;DHT22;3547;50.774;12.918;2023-01-25T00:09:37;0.30;67.50
7014;DHT22;3547;50.774;12.918;2023-01-25T00:12:03;0.30;64.60
7014;DHT22;3547;50.774;12.918;2023-01-25T00:14:30;0.40;63.70
7014;DHT22;3547;50.774;12.918;2023-01-25T00:16:56;0.40;59.40
7014;DHT22;3547;50.774;12.918;2023-01-25T00:19:22;0.40;65.60
7014;DHT22;3547;50.774;12.918;2023-01-25T00:21:49;0.40;65.90
7014;DHT22;3547;50.774;12.918;2023-01-25T00:24:15;0.40;59.00
7014;DHT22;3547;50.774;12.918;2023-01-25T00:26:42;0.40;56.00
7014;DHT22;3547;50.774;12.918;2023-01-25T00:29:12;0.20;27.90
7014;DHT22;3547;50.774;12.918;2023-01-25T00:37:01;0.20;48.50
7014;DHT22;3547;50.774;12.918;2023-01-25T00:39:35;0.20;57.90
7014;DHT22;3547;50.774;12.918;2023-01-25T00:42:01;0.10;42.10
7014;DHT22;3547;50.774;12.918;2023-01-25T00:44:27;0.00;52.50
7014;DHT22;3547;50.774;12.918;2023-01-25T00:46:54;-0.10;59.80
7014;DHT22;3547;50.774;12.918;2023-01-25T00:49:24;0.00;87.30
7014;DHT22;3547;50.774;12.918;2023-01-25T00:51:51;0.10;86.70
7014;DHT22;3547;50.774;12.918;2023-01-25T00:54:18;-0.10;59.10
7014;DHT22;3547;50.774;12.918;2023-01-25T00:56:45;-0.20;59.70
7014;DHT22;3547;50.774;12.918;2023-01-25T00:59:12;-0.20;90.30
7014;DHT22;3547;50.774;12.918;2023-01-25T01:01:40;-0.10;84.40
7014;DHT22;3547;50.774;12.918;2023-01-25T01:04:07;0.00;90.80
7014;DHT22;3547;50.774;12.918;2023-01-25T01:06:37;0.00;86.50
7014;DHT22;3547;50.774;12.918;2023-01-25T01:09:05;0.00;91.60
7014;DHT22;3547;50.774;12.918;2023-01-25T01:11:32;0.10;98.90
7014;DHT22;3547;50.774;12.918;2023-01-25T01:13:59;0.10;90.30
7014;DHT22;3547;50.774;12.918;2023-01-25T01:16:25;0.10;83.00
7014;DHT22;3547;50.774;12.918;2023-01-25T01:18:52;0.20;88.00
7014;DHT22;3547;50.774;12.918;2023-01-25T01:21:19;0.30;89.00
7014;DHT22;3547;50.774;12.918;2023-01-25T01:23:45;0.30;95.60
7014;DHT22;3547;50.774;12.918;2023-01-25T01:26:13;0.20;73.40
7014;DHT22;3547;50.774;12.918;2023-01-25T01:28:40;0.30;83.80
7014;DHT22;3547;50.774;12.918;2023-01-25T01:31:18;0.30;88.10
7014;DHT22;3547;50.774;12.918;2023-01-25T01:33:48;0.30;90.10
7014;DHT22;3547;50.774;12.918;2023-01-25T01:36:16;0.30;79.50
7014;DHT22;3547;50.774;12.918;2023-01-25T01:38:43;0.40;81.80
7014;DHT22;3547;50.774;12.918;2023-01-25T01:41:10;0.40;84.50
7014;DHT22;3547;50.774;12.918;2023-01-25T01:43:36;0.40;78.00
7014;DHT22;3547;50.774;12.918;2023-01-25T01:46:18;0.30;77.20
7014;DHT22;3547;50.774;12.918;2023-01-25T01:48:51;0.40;85.60
7014;DHT22;3547;50.774;12.918;2023-01-25T01:51:46;0.40;81.60
7014;DHT22;3547;50.774;12.918;2023-01-25T01:54:26;0.40;80.00
7014;DHT22;3547;50.774;12.918;2023-01-25T01:57:13;0.20;74.10
7014;DHT22;3547;50.774;12.918;2023-01-25T02:02:25;0.40;87.30
7014;DHT22;3547;50.774;12.918;2023-01-25T02:04:53;0.40;91.00
7014;DHT22;3547;50.774;12.918;2023-01-25T02:07:23;0.40;89.50
7014;DHT22;3547;50.774;12.918;2023-01-25T02:09:52;0.30;70.90
7014;DHT22;3547;50.774;12.918;2023-01-25T02:12:20;0.40;85.30
7014;DHT22;3547;50.774;12.918;2023-01-25T02:14:50;0.40;83.30
7014;DHT22;3547;50.774;12.918;2023-01-25T02:17:25;0.40;78.40
7014;DHT22;3547;50.774;12.918;2023-01-25T02:22:55;0.40;64.90
7014;DHT22;3547;50.774;12.918;2023-01-25T02:25:24;0.40;61.50
7014;DHT22;3547;50.774;12.918;2023-01-25T02:27:57;0.40;64.10
7014;DHT22;3547;50.774;12.918;2023-01-25T02:30:25;0.40;61.40
7014;DHT22;3547;50.774;12.918;2023-01-25T02:32:51;0.30;63.10
7014;DHT22;3547;50.774;12.918;2023-01-25T02:35:21;0.30;61.20
7014;DHT22;3547;50.774;12.918;2023-01-25T02:37:48;0.30;68.40
7014;DHT22;3547;50.774;12.918;2023-01-25T02:43:37;0.40;77.20
7014;DHT22;3547;50.774;12.918;2023-01-25T02:46:13;0.40;81.80
7014;DHT22;3547;50.774;12.918;2023-01-25T02:48:40;0.40;74.10
7014;DHT22;3547;50.774;12.918;2023-01-25T02:51:07;0.40;67.50
7014;DHT22;3547;50.774;12.918;2023-01-25T02:53:34;0.30;65.80
7014;DHT22;3547;50.774;12.918;2023-01-25T02:56:00;0.30;80.00
7014;DHT22;3547;50.774;12.918;2023-01-25T02:58:26;0.40;91.40
7014;DHT22;3547;50.774;12.918;2023-01-25T03:00:53;0.40;91.50
7014;DHT22;3547;50.774;12.918;2023-01-25T03:03:20;0.50;89.60
7014;DHT22;3547;50.774;12.918;2023-01-25T03:05:46;0.40;78.10
7014;DHT22;3547;50.774;12.918;2023-01-25T03:08:12;0.40;83.30
7014;DHT22;3547;50.774;12.918;2023-01-25T03:10:38;0.40;89.10
7014;DHT22;3547;50.774;12.918;2023-01-25T03:13:04;0.50;89.10
7014;DHT22;3547;50.774;12.918;2023-01-25T03:15:31;0.40;89.00
7014;DHT22;3547;50.774;12.918;2023-01-25T03:17:57;0.50;91.30
7014;DHT22;3547;50.774;12.918;2023-01-25T03:20:23;0.50;89.70
7014;DHT22;3547;50.774;12.918;2023-01-25T03:22:49;0.50;89.50
7014;DHT22;3547;50.774;12.918;2023-01-25T03:25:15;0.40;76.90
7014;DHT22;3547;50.774;12.918;2023-01-25T03:27:42;0.40;84.80
7014;DHT22;3547;50.774;12.918;2023-01-25T03:30:08;0.40;85.60
7014;DHT22;3547;50.774;12.918;2023-01-25T03:32:35;0.30;88.60
7014;DHT22;3547;50.774;12.918;2023-01-25T03:35:01;0.30;91.70
7014;DHT22;3547;50.774;12.918;2023-01-25T03:37:27;0.40;91.50
7014;DHT22;3547;50.774;12.918;2023-01-25T03:39:56;0.40;87.60
7014;DHT22;3547;50.774;12.918;2023-01-25T03:42:23;0.40;78.80
7014;DHT22;3547;50.774;12.918;2023-01-25T03:44:49;0.30;86.10
7014;DHT22;3547;50.774;12.918;2023-01-25T03:47:15;0.40;92.00
7014;DHT22;3547;50.774;12.918;2023-01-25T03:49:41;0.40;89.30
7014;DHT22;3547;50.774;12.918;2023-01-25T03:52:07;0.40;93.00
7014;DHT22;3547;50.774;12.918;2023-01-25T03:54:34;0.40;93.20
7014;DHT22;3547;50.774;12.918;2023-01-25T03:57:00;0.40;97.80
7014;DHT22;3547;50.774;12.918;2023-01-25T03:59:26;0.40;98.00
7014;DHT22;3547;50.774;12.918;2023-01-25T04:01:52;0.40;93.10
7014;DHT22;3547;50.774;12.918;2023-01-25T04:04:18;0.40;99.20
7014;DHT22;3547;50.774;12.918;2023-01-25T04:06:44;0.40;99.90
7014;DHT22;3547;50.774;12.918;2023-01-25T04:09:10;0.50;99.90
7014;DHT22;3547;50.774;12.918;2023-01-25T04:11:39;0.50;96.60
7014;DHT22;3547;50.774;12.918;2023-01-25T04:14:05;0.50;95.80
7014;DHT22;3547;50.774;12.918;2023-01-25T04:16:31;0.50;93.50
7014;DHT22;3547;50.774;12.918;2023-01-25T04:18:58;0.40;91.30
7014;DHT22;3547;50.774;12.918;2023-01-25T04:21:24;0.40;97.20
7014;DHT22;3547;50.774;12.918;2023-01-25T04:23:50;0.40;97.30
7014;DHT22;3547;50.774;12.918;2023-01-25T04:26:16;0.50;97.40
7014;DHT22;3547;50.774;12.918;2023-01-25T04:28:42;0.40;97.40
7014;DHT22;3547;50.774;12.918;2023-01-25T04:31:08;0.40;99.90
7014;DHT22;3547;50.774;12.918;2023-01-25T04:33:34;0.50;99.90
7014;DHT22;3547;50.774;12.918;2023-01-25T04:36:01;0.50;99.90
7014;DHT22;3547;50.774;12.918;2023-01-25T04:38:27;0.50;98.60
7014;DHT22;3547;50.774;12.918;2023-01-25T04:40:53;0.60;99.90
7014;DHT22;3547;50.774;12.918;2023-01-25T04:43:19;0.60;99.10
7014;DHT22;3547;50.774;12.918;2023-01-25T04:45:46;0.60;98.10
7014;DHT22;3547;50.774;12.918;2023-01-25T04:48:13;0.60;96.60
7014;DHT22;3547;50.774;12.918;2023-01-25T04:50:40;0.60;96.60
7014;DHT22;3547;50.774;12.918;2023-01-25T04:53:07;0.60;95.60
7014;DHT22;3547;50.774;12.918;2023-01-25T04:55:34;0.60;95.70
7014;DHT22;3547;50.774;12.918;2023-01-25T04:58:01;0.60;94.30
7014;DHT22;3547;50.774;12.918;2023-01-25T05:00:28;0.60;94.40
7014;DHT22;3547;50.774;12.918;2023-01-25T05:02:54;0.60;97.10
7014;DHT22;3547;50.774;12.918;2023-01-25T05:05:20;0.60;99.90
7014;DHT22;3547;50.774;12.918;2023-01-25T05:07:47;0.60;99.90
7014;DHT22;3547;50.774;12.918;2023-01-25T05:10:13;0.60;97.90
7014;DHT22;3547;50.774;12.918;2023-01-25T05:12:39;0.60;99.90
7014;DHT22;3547;50.774;12.918;2023-01-25T05:15:08;0.60;97.70
7014;DHT22;3547;50.774;12.918;2023-01-25T05:17:36;0.60;97.00
7014;DHT22;3547;50.774;12.918;2023-01-25T05:20:04;0.50;98.70
7014;DHT22;3547;50.774;12.918;2023-01-25T05:22:30;0.50;99.90
7014;DHT22;3547;50.774;12.918;2023-01-25T05:24:56;0.50;99.90
7014;DHT22;3547;50.774;12.918;2023-01-25T05:27:24;0.60;99.90
7014;DHT22;3547;50.774;12.918;2023-01-25T05:29:50;0.60;99.60
7014;DHT22;3547;50.774;12.918;2023-01-25T05:32:18;0.60;99.90
7014;DHT22;3547;50.774;12.918;2023-01-25T05:34:45;0.60;99.90
7014;DHT22;3547;50.774;12.918;2023-01-25T05:37:13;0.50;98.10
7014;DHT22;3547;50.774;12.918;2023-01-25T05:39:41;0.50;99.90
7014;DHT22;3547;50.774;12.918;2023-01-25T05:42:12;0.50;99.70
7014;DHT22;3547;50.774;12.918;2023-01-25T05:44:39;0.50;98.60
7014;DHT22;3547;50.774;12.918;2023-01-25T05:47:05;0.50;99.40
7014;DHT22;3547;50.774;12.918;2023-01-25T05:49:32;0.60;98.60
7014;DHT22;3547;50.774;12.918;2023-01-25T05:51:58;0.60;99.20
7014;DHT22;3547;50.774;12.918;2023-01-25T05:57:46;0.60;97.30
7014;DHT22;3547;50.774;12.918;2023-01-25T06:00:13;0.50;99.50
7014;DHT22;3547;50.774;12.918;2023-01-25T06:02:39;0.50;99.30
7014;DHT22;3547;50.774;12.918;2023-01-25T06:05:06;0.60;99.20
7014;DHT22;3547;50.774;12.918;2023-01-25T06:07:33;0.60;97.90
7014;DHT22;3547;50.774;12.918;2023-01-25T06:10:03;0.60;98.20
7014;DHT22;3547;50.774;12.918;2023-01-25T06:12:30;0.60;96.90
7014;DHT22;3547;50.774;12.918;2023-01-25T06:14:56;0.60;97.00
7014;DHT22;3547;50.774;12.918;2023-01-25T06:17:22;0.50;96.00
7014;DHT22;3547;50.774;12.918;2023-01-25T06:19:48;0.50;99.90
7014;DHT22;3547;50.774;12.918;2023-01-25T06:22:14;0.60;99.90
7014;DHT22;3547;50.774;12.918;2023-01-25T06:24:40;0.60;98.10
7014;DHT22;3547;50.774;12.918;2023-01-25T06:27:06;0.60;98.00
7014;DHT22;3547;50.774;12.918;2023-01-25T06:29:33;0.60;99.40
7014;DHT22;3547;50.774;12.918;2023-01-25T06:31:59;0.60;95.20
7014;DHT22;3547;50.774;12.918;2023-01-25T06:34:25;0.60;99.90
7014;DHT22;3547;50.774;12.918;2023-01-25T06:36:51;0.60;99.90
7014;DHT22;3547;50.774;12.918;2023-01-25T06:39:17;0.60;99.90
7014;DHT22;3547;50.774;12.918;2023-01-25T06:41:44;0.50;99.90
7014;DHT22;3547;50.774;12.918;2023-01-25T06:44:10;0.60;99.90
7014;DHT22;3547;50.774;12.918;2023-01-25T06:46:36;0.60;99.90
7014;DHT22;3547;50.774;12.918;2023-01-25T06:49:02;0.60;99.90
7014;DHT22;3547;50.774;12.918;2023-01-25T06:51:28;0.60;99.90
7014;DHT22;3547;50.774;12.918;2023-01-25T06:53:54;0.60;99.90
7014;DHT22;3547;50.774;12.918;2023-01-25T06:56:21;0.60;99.90
7014;DHT22;3547;50.774;12.918;2023-01-25T06:58:48;0.60;99.90
7014;DHT22;3547;50.774;12.918;2023-01-25T07:01:20;0.60;99.90
7014;DHT22;3547;50.774;12.918;2023-01-25T07:03:51;0.60;99.90
7014;DHT22;3547;50.774;12.918;2023-01-25T07:06:18;0.60;99.90
7014;DHT22;3547;50.774;12.918;2023-01-25T07:08:45;0.60;99.90
7014;DHT22;3547;50.774;12.918;2023-01-25T07:11:11;0.70;99.90
7014;DHT22;3547;50.774;12.918;2023-01-25T07:13:42;0.60;99.90
7014;DHT22;3547;50.774;12.918;2023-01-25T07:16:19;0.60;99.90
7014;DHT22;3547;50.774;12.918;2023-01-25T07:18:46;0.60;99.90
7014;DHT22;3547;50.774;12.918;2023-01-25T07:21:18;0.60;99.90
7014;DHT22;3547;50.774;12.918;2023-01-25T07:23:46;0.60;99.90
7014;DHT22;3547;50.774;12.918;2023-01-25T07:26:19;0.70;99.90
7014;DHT22;3547;50.774;12.918;2023-01-25T07:28:46;0.70;99.90
7014;DHT22;3547;50.774;12.918;2023-01-25T07:31:13;0.70;99.90
7014;DHT22;3547;50.774;12.918;2023-01-25T07:33:40;0.70;99.90
7014;DHT22;3547;50.774;12.918;2023-01-25T07:36:07;0.80;99.90
7014;DHT22;3547;50.774;12.918;2023-01-25T07:38:34;0.80;99.90
7014;DHT22;3547;50.774;12.918;2023-01-25T07:41:01;0.80;99.90
7014;DHT22;3547;50.774;12.918;2023-01-25T07:43:28;0.80;99.90
7014;DHT22;3547;50.774;12.918;2023-01-25T07:46:00;0.80;99.90
7014;DHT22;3547;50.774;12.918;2023-01-25T07:48:26;0.80;99.90
7014;DHT22;3547;50.774;12.918;2023-01-25T07:50:57;0.90;97.60
7014;DHT22;3547;50.774;12.918;2023-01-25T07:53:46;0.80;93.80
7014;DHT22;3547;50.774;12.918;2023-01-25T07:56:12;0.70;99.90
7014;DHT22;3547;50.774;12.918;2023-01-25T07:58:39;0.80;99.90
7014;DHT22;3547;50.774;12.918;2023-01-25T08:01:06;0.70;98.30
7014;DHT22;3547;50.774;12.918;2023-01-25T08:03:33;0.60;99.90
7014;DHT22;3547;50.774;12.918;2023-01-25T08:05:59;0.60;99.90
7014;DHT22;3547;50.774;12.918;2023-01-25T08:08:26;0.70;99.90
7014;DHT22;3547;50.774;12.918;2023-01-25T08:10:52;0.70;99.90
7014;DHT22;3547;50.774;12.918;2023-01-25T08:13:18;0.80;99.90
7014;DHT22;3547;50.774;12.918;2023-01-25T08:15:52;0.90;99.90
7014;DHT22;3547;50.774;12.918;2023-01-25T08:18:18;0.80;99.90
7014;DHT22;3547;50.774;12.918;2023-01-25T08:20:44;1.00;99.90
7014;DHT22;3547;50.774;12.918;2023-01-25T08:23:10;1.10;99.90
7014;DHT22;3547;50.774;12.918;2023-01-25T08:25:36;1.20;99.90
7014;DHT22;3547;50.774;12.918;2023-01-25T08:28:04;1.30;99.90
7014;DHT22;3547;50.774;12.918;2023-01-25T08:30:30;1.30;98.40
7014;DHT22;3547;50.774;12.918;2023-01-25T08:32:57;1.30;70.50
7014;DHT22;3547;50.774;12.918;2023-01-25T08:35:23;1.30;65.20
7014;DHT22;3547;50.774;12.918;2023-01-25T08:37:49;1.30;63.90
7014;DHT22;3547;50.774;12.918;2023-01-25T08:40:15;1.30;56.20
7014;DHT22;3547;50.774;12.918;2023-01-25T08:42:41;1.30;54.50
7014;DHT22;3547;50.774;12.918;2023-01-25T08:45:10;1.30;58.60
7014;DHT22;3547;50.774;12.918;2023-01-25T08:47:36;1.40;54.60
7014;DHT22;3547;50.774;12.918;2023-01-25T08:50:03;1.40;48.50
7014;DHT22;3547;50.774;12.918;2023-01-25T08:52:29;1.40;55.60
7014;DHT22;3547;50.774;12.918;2023-01-25T08:54:55;1.50;67.10
7014;DHT22;3547;50.774;12.918;2023-01-25T08:57:21;1.70;68.60
7014;DHT22;3547;50.774;12.918;2023-01-25T08:59:48;1.70;33.70
7014;DHT22;3547;50.774;12.918;2023-01-25T09:02:14;1.80;28.40
7014;DHT22;3547;50.774;12.918;2023-01-25T09:04:40;1.80;16.10
7014;DHT22;3547;50.774;12.918;2023-01-25T09:07:06;1.80;8.30
7014;DHT22;3547;50.774;12.918;2023-01-25T09:09:32;1.90;25.90
7014;DHT22;3547;50.774;12.918;2023-01-25T09:11:58;2.10;37.80
7014;DHT22;3547;50.774;12.918;2023-01-25T09:14:24;2.10;2.40
7014;DHT22;3547;50.774;12.918;2023-01-25T09:16:51;2.30;21.30
7014;DHT22;3547;50.774;12.918;2023-01-25T09:19:17;2.30;8.60
7014;DHT22;3547;50.774;12.918;2023-01-25T09:21:43;2.40;17.90
7014;DHT22;3547;50.774;12.918;2023-01-25T09:24:09;2.40;22.20
7014;DHT22;3547;50.774;12.918;2023-01-25T09:26:38;2.50;16.90
7014;DHT22;3547;50.774;12.918;2023-01-25T09:29:05;2.30;1.00
7014;DHT22;3547;50.774;12.918;2023-01-25T09:31:32;2.20;1.00
7014;DHT22;3547;50.774;12.918;2023-01-25T09:33:59;2.10;1.00
7014;DHT22;3547;50.774;12.918;2023-01-25T09:36:25;2.10;1.00
7014;DHT22;3547;50.774;12.918;2023-01-25T09:38:52;2.20;1.00
7014;DHT22;3547;50.774;12.918;2023-01-25T09:46:43;2.20;1.00
7014;DHT22;3547;50.774;12.918;2023-01-25T09:54:40;2.10;1.00
7014;DHT22;3547;50.774;12.918;2023-01-25T09:57:32;2.00;1.00
7014;DHT22;3547;50.774;12.918;2023-01-25T10:00:03;2.00;1.00
7014;DHT22;3547;50.774;12.918;2023-01-25T10:02:42;2.10;1.00
7014;DHT22;3547;50.774;12.918;2023-01-25T10:05:16;2.00;1.00
7014;DHT22;3547;50.774;12.918;2023-01-25T10:10:25;1.80;1.00
7014;DHT22;3547;50.774;12.918;2023-01-25T10:12:53;1.90;1.00
7014;DHT22;3547;50.774;12.918;2023-01-25T10:15:22;2.00;1.00
7014;DHT22;3547;50.774;12.918;2023-01-25T10:18:24;2.20;3.40
7014;DHT22;3547;50.774;12.918;2023-01-25T10:21:01;2.10;1.00
7014;DHT22;3547;50.774;12.918;2023-01-25T10:26:28;2.10;1.00
7014;DHT22;3547;50.774;12.918;2023-01-25T10:29:27;2.10;1.00
7014;DHT22;3547;50.774;12.918;2023-01-25T10:32:15;2.00;1.00
7014;DHT22;3547;50.774;12.918;2023-01-25T10:34:48;1.90;1.00
7014;DHT22;3547;50.774;12.918;2023-01-25T10:37:21;1.90;1.00
7014;DHT22;3547;50.774;12.918;2023-01-25T10:40:38;2.00;1.00
7014;DHT22;3547;50.774;12.918;2023-01-25T10:43:05;2.10;1.00
7014;DHT22;3547;50.774;12.918;2023-01-25T10:45:32;1.90;1.00
7014;DHT22;3547;50.774;12.918;2023-01-25T10:48:06;1.90;1.00
7014;DHT22;3547;50.774;12.918;2023-01-25T10:50:41;1.90;1.00
7014;DHT22;3547;50.774;12.918;2023-01-25T10:53:29;1.90;1.00
7014;DHT22;3547;50.774;12.918;2023-01-25T10:58:42;2.30;1.00
7014;DHT22;3547;50.774;12.918;2023-01-25T11:01:27;2.20;1.00
7014;DHT22;3547;50.774;12.918;2023-01-25T11:03:54;2.10;1.00
7014;DHT22;3547;50.774;12.918;2023-01-25T11:06:45;2.20;1.00
7014;DHT22;3547;50.774;12.918;2023-01-25T11:11:54;2.00;1.00
7014;DHT22;3547;50.774;12.918;2023-01-25T11:14:24;2.10;1.00
7014;DHT22;3547;50.774;12.918;2023-01-25T11:16:55;2.00;1.00
7014;DHT22;3547;50.774;12.918;2023-01-25T11:19:36;2.10;1.00
7014;DHT22;3547;50.774;12.918;2023-01-25T11:22:22;2.10;1.00
7014;DHT22;3547;50.774;12.918;2023-01-25T11:24:50;2.30;1.00
7014;DHT22;3547;50.774;12.918;2023-01-25T11:29:46;2.20;1.00
7014;DHT22;3547;50.774;12.918;2023-01-25T11:32:32;2.10;1.00
7014;DHT22;3547;50.774;12.918;2023-01-25T11:34:58;2.10;1.00
7014;DHT22;3547;50.774;12.918;2023-01-25T11:56:12;2.10;1.00
7014;DHT22;3547;50.774;12.918;2023-01-25T12:04:47;2.30;1.00
7014;DHT22;3547;50.774;12.918;2023-01-25T12:09:49;2.30;1.00
7014;DHT22;3547;50.774;12.918;2023-01-25T12:13:14;2.30;1.00
7014;DHT22;3547;50.774;12.918;2023-01-25T12:15:40;2.40;1.00
7014;DHT22;3547;50.774;12.918;2023-01-25T12:31:52;2.90;1.00
7014;DHT22;3547;50.774;12.918;2023-01-25T12:34:47;2.60;1.00
7014;DHT22;3547;50.774;12.918;2023-01-25T12:37:20;2.70;1.00
7014;DHT22;3547;50.774;12.918;2023-01-25T12:40:02;2.80;1.00
7014;DHT22;3547;50.774;12.918;2023-01-25T12:42:38;2.80;1.00
7014;DHT22;3547;50.774;12.918;2023-01-25T12:45:20;2.90;1.00
7014;DHT22;3547;50.774;12.918;2023-01-25T12:50:21;2.70;1.00
7014;DHT22;3547;50.774;12.918;2023-01-25T12:52:51;2.50;1.00
7014;DHT22;3547;50.774;12.918;2023-01-25T12:55:19;2.50;1.00
7014;DHT22;3547;50.774;12.918;2023-01-25T12:58:03;2.70;1.00
7014;DHT22;3547;50.774;12.918;2023-01-25T13:03:23;2.70;1.00
7014;DHT22;3547;50.774;12.918;2023-01-25T13:11:21;2.90;1.00
7014;DHT22;3547;50.774;12.918;2023-01-25T13:13:48;2.70;1.00
7014;DHT22;3547;50.774;12.918;2023-01-25T13:16:32;2.70;1.00
7014;DHT22;3547;50.774;12.918;2023-01-25T13:18:59;2.50;1.00
7014;DHT22;3547;50.774;12.918;2023-01-25T13:21:40;2.30;1.00
7014;DHT22;3547;50.774;12.918;2023-01-25T13:24:13;2.30;1.00
7014;DHT22;3547;50.774;12.918;2023-01-25T13:32:11;2.00;1.00
7014;DHT22;3547;50.774;12.918;2023-01-25T13:37:19;2.00;1.00
7014;DHT22;3547;50.774;12.918;2023-01-25T13:40:26;1.90;1.00
7014;DHT22;3547;50.774;12.918;2023-01-25T13:45:40;2.00;1.00
7014;DHT22;3547;50.774;12.918;2023-01-25T13:50:49;1.90;1.00
7014;DHT22;3547;50.774;12.918;2023-01-25T13:55:47;1.90;1.00
7014;DHT22;3547;50.774;12.918;2023-01-25T13:58:25;1.90;1.00
7014;DHT22;3547;50.774;12.918;2023-01-25T14:01:12;2.00;1.00
7014;DHT22;3547;50.774;12.918;2023-01-25T14:03:44;1.80;1.00
7014;DHT22;3547;50.774;12.918;2023-01-25T14:06:32;1.70;1.00
7014;DHT22;3547;50.774;12.918;2023-01-25T14:09:02;1.70;1.00
7014;DHT22;3547;50.774;12.918;2023-01-25T14:11:34;1.80;1.00
7014;DHT22;3547;50.774;12.918;2023-01-25T14:14:23;1.80;1.00
7014;DHT22;3547;50.774;12.918;2023-01-25T14:17:15;1.80;1.00
7014;DHT22;3547;50.774;12.918;2023-01-25T14:19:55;1.80;1.00
7014;DHT22;3547;50.774;12.918;2023-01-25T14:22:27;1.70;1.00
7014;DHT22;3547;50.774;12.918;2023-01-25T14:25:20;1.50;1.00
7014;DHT22;3547;50.774;12.918;2023-01-25T14:27:55;1.50;1.00
7014;DHT22;3547;50.774;12.918;2023-01-25T14:30:30;1.60;1.00
7014;DHT22;3547;50.774;12.918;2023-01-25T14:35:46;1.70;1.00
7014;DHT22;3547;50.774;12.918;2023-01-25T14:38:32;1.60;1.00
7014;DHT22;3547;50.774;12.918;2023-01-25T14:41:24;1.60;1.00
7014;DHT22;3547;50.774;12.918;2023-01-25T14:43:54;1.50;1.00
7014;DHT22;3547;50.774;12.918;2023-01-25T14:46:26;1.50;1.00
7014;DHT22;3547;50.774;12.918;2023-01-25T14:51:32;1.50;1.00
7014;DHT22;3547;50.774;12.918;2023-01-25T14:54:03;1.60;1.00
7014;DHT22;3547;50.774;12.918;2023-01-25T14:58:57;1.50;1.00
7014;DHT22;3547;50.774;12.918;2023-01-25T15:01:51;1.50;1.00
7014;DHT22;3547;50.774;12.918;2023-01-25T15:04:17;1.50;1.00
7014;DHT22;3547;50.774;12.918;2023-01-25T15:06:50;1.60;1.00
7014;DHT22;3547;50.774;12.918;2023-01-25T15:09:38;1.60;1.00
7014;DHT22;3547;50.774;12.918;2023-01-25T15:12:26;1.60;1.00
7014;DHT22;3547;50.774;12.918;2023-01-25T15:14:54;1.60;1.00
7014;DHT22;3547;50.774;12.918;2023-01-25T15:17:40;1.60;1.00
7014;DHT22;3547;50.774;12.918;2023-01-25T15:23:01;1.50;1.00
7014;DHT22;3547;50.774;12.918;2023-01-25T15:25:27;1.40;1.00
7014;DHT22;3547;50.774;12.918;2023-01-25T15:27:54;1.40;1.00
7014;DHT22;3547;50.774;12.918;2023-01-25T15:30:20;1.30;1.00
7014;DHT22;3547;50.774;12.918;2023-01-25T15:32:47;1.40;1.00
7014;DHT22;3547;50.774;12.918;2023-01-25T15:35:18;1.40;1.00
7014;DHT22;3547;50.774;12.918;2023-01-25T15:37:46;1.30;1.00
7014;DHT22;3547;50.774;12.918;2023-01-25T15:40:13;1.20;1.00
7014;DHT22;3547;50.774;12.918;2023-01-25T15:42:39;1.20;1.00
7014;DHT22;3547;50.774;12.918;2023-01-25T15:45:07;1.20;1.00
7014;DHT22;3547;50.774;12.918;2023-01-25T15:47:37;1.20;1.00
7014;DHT22;3547;50.774;12.918;2023-01-25T15:50:05;1.20;1.90
7014;DHT22;3547;50.774;12.918;2023-01-25T15:52:31;1.10;1.00
7014;DHT22;3547;50.774;12.918;2023-01-25T15:54:57;1.10;1.00
7014;DHT22;3547;50.774;12.918;2023-01-25T15:57:32;1.10;1.00
7014;DHT22;3547;50.774;12.918;2023-01-25T15:59:59;1.10;1.00
7014;DHT22;3547;50.774;12.918;2023-01-25T16:02:25;1.10;1.00
7014;DHT22;3547;50.774;12.918;2023-01-25T16:04:53;1.10;1.00
7014;DHT22;3547;50.774;12.918;2023-01-25T16:07:25;1.10;1.00
7014;DHT22;3547;50.774;12.918;2023-01-25T16:09:52;1.00;1.00
7014;DHT22;3547;50.774;12.918;2023-01-25T16:12:18;0.90;1.00
7014;DHT22;3547;50.774;12.918;2023-01-25T16:14:44;0.90;1.40
7014;DHT22;3547;50.774;12.918;2023-01-25T16:17:16;0.90;9.30
7014;DHT22;3547;50.774;12.918;2023-01-25T16:19:43;1.00;12.80
7014;DHT22;3547;50.774;12.918;2023-01-25T16:22:16;0.90;15.10
7014;DHT22;3547;50.774;12.918;2023-01-25T16:24:46;1.00;16.20
7014;DHT22;3547;50.774;12.918;2023-01-25T16:27:17;0.80;10.30
7014;DHT22;3547;50.774;12.918;2023-01-25T16:29:51;0.90;14.80
7014;DHT22;3547;50.774;12.918;2023-01-25T16:32:17;0.90;23.80
7014;DHT22;3547;50.774;12.918;2023-01-25T16:34:43;0.90;27.00
7014;DHT22;3547;50.774;12.918;2023-01-25T16:37:16;0.90;15.00
7014;DHT22;3547;50.774;12.918;2023-01-25T16:39:43;0.80;15.50
7014;DHT22;3547;50.774;12.918;2023-01-25T16:42:11;0.90;12.20
7014;DHT22;3547;50.774;12.918;2023-01-25T16:44:38;0.90;10.40
7014;DHT22;3547;50.774;12.918;2023-01-25T16:47:05;0.90;7.20
7014;DHT22;3547;50.774;12.918;2023-01-25T16:49:31;0.90;1.00
7014;DHT22;3547;50.774;12.918;2023-01-25T16:52:00;0.80;4.20
7014;DHT22;3547;50.774;12.918;2023-01-25T16:54:27;0.70;6.90
7014;DHT22;3547;50.774;12.918;2023-01-25T16:56:54;0.80;4.80
7014;DHT22;3547;50.774;12.918;2023-01-25T16:59:21;0.80;5.60
7014;DHT22;3547;50.774;12.918;2023-01-25T17:01:48;0.80;9.10
7014;DHT22;3547;50.774;12.918;2023-01-25T17:04:14;0.80;19.70
7014;DHT22;3547;50.774;12.918;2023-01-25T17:06:43;0.80;12.40
7014;DHT22;3547;50.774;12.918;2023-01-25T17:09:15;0.80;15.60
7014;DHT22;3547;50.774;12.918;2023-01-25T17:11:42;0.80;15.50
7014;DHT22;3547;50.774;12.918;2023-01-25T17:14:12;0.90;15.10
7014;DHT22;3547;50.774;12.918;2023-01-25T17:16:38;0.80;3.40
7014;DHT22;3547;50.774;12.918;2023-01-25T17:19:14;0.80;6.00
7014;DHT22;3547;50.774;12.918;2023-01-25T17:21:40;0.80;4.40
7014;DHT22;3547;50.774;12.918;2023-01-25T17:24:07;0.80;3.90
7014;DHT22;3547;50.774;12.918;2023-01-25T17:26:33;0.80;6.90
7014;DHT22;3547;50.774;12.918;2023-01-25T17:29:00;0.90;6.90
7014;DHT22;3547;50.774;12.918;2023-01-25T17:31:32;0.90;10.10
7014;DHT22;3547;50.774;12.918;2023-01-25T17:34:04;0.90;16.70
7014;DHT22;3547;50.774;12.918;2023-01-25T17:36:30;0.80;10.00
7014;DHT22;3547;50.774;12.918;2023-01-25T17:39:04;0.80;5.40
7014;DHT22;3547;50.774;12.918;2023-01-25T17:41:31;0.80;7.90
7014;DHT22;3547;50.774;12.918;2023-01-25T17:43:57;0.80;13.20
7014;DHT22;3547;50.774;12.918;2023-01-25T17:46:29;0.90;14.80
7014;DHT22;3547;50.774;12.918;2023-01-25T17:48:58;0.90;10.30
7014;DHT22;3547;50.774;12.918;2023-01-25T17:51:25;0.90;11.20
7014;DHT22;3547;50.774;12.918;2023-01-25T17:53:52;0.90;9.80
7014;DHT22;3547;50.774;12.918;2023-01-25T17:56:19;0.90;10.90
7014;DHT22;3547;50.774;12.918;2023-01-25T17:58:45;0.90;9.60
7014;DHT22;3547;50.774;12.918;2023-01-25T18:01:16;0.80;10.20
7014;DHT22;3547;50.774;12.918;2023-01-25T18:03:44;0.80;12.20
7014;DHT22;3547;50.774;12.918;2023-01-25T18:06:12;0.90;14.20
7014;DHT22;3547;50.774;12.918;2023-01-25T18:08:40;0.80;13.30
7014;DHT22;3547;50.774;12.918;2023-01-25T18:11:13;0.80;15.40
7014;DHT22;3547;50.774;12.918;2023-01-25T18:13:52;0.80;18.60
7014;DHT22;3547;50.774;12.918;2023-01-25T18:16:19;0.80;17.50
7014;DHT22;3547;50.774;12.918;2023-01-25T18:18:48;0.80;19.20
7014;DHT22;3547;50.774;12.918;2023-01-25T18:21:20;0.90;16.80
7014;DHT22;3547;50.774;12.918;2023-01-25T18:23:52;0.90;18.70
7014;DHT22;3547;50.774;12.918;2023-01-25T18:26:25;1.00;20.40